Airfield :







YOU CAN JOIN US ON...

 
LOGIN :

Register | Disclaimer

   EN    FR    IT 

 









Legend :    VFR   Marginal VFR   IFR   Intensive IFR   Very Intensive IFR
Visi :
Ceiling :
>= 8 km
>= 3000ft
5 to 8 km
1000 to 3000 ft
1500m to 5 km
500 to 1000 ft
800 to 1500m
200 to 500 ft
< 800m
< 200 ft
Symbols :   Thunderstorms  Fog  Heavy snow  Heavy precipitations  Wind > 20 kt






- Airport Elevation : 244 ft
- IATA code : YQB


CYQB - Quebec - Jean Lesage Int.

CURRENT METAR :
  • 141100Z 24011KT 20SM FEW008 BKN014 BKN024 OVC037 18/17 A2967 RMK SF1SC4SC2SC1 VIS LWR N SLP049 DENSITY ALT 1000FT

EXPIRED METARs :
  • 141045Z 25011G18KT 20SM FEW008 BKN014 BKN025 OVC035 18/17 A2966 RMK SF1SC6SC1SC1 SF TR VIS LWR N SLP047 DENSITY ALT 1000FT
  • 141000Z 25012G19KT 20SM FEW010 BKN017 OVC240 18/17 A2965 RMK SF2SC5CI1 VIS LWR N SLP042 DENSITY ALT 1000FT
  • 140900Z 23011KT 20SM FEW010 BKN025 OVC240 18/17 A2965 RMK SF1SC6CI1 VIS LWR N SLP041 DENSITY ALT 1000FT
  • 140800Z 23011KT 15SM FEW010 SCT045 BKN090 OVC240 18/17 A2963 RMK SF2SC1AC2CI3 SLP037 DENSITY ALT 1100FT
  • 140731Z VRB02KT 15SM FEW010 SCT110 OVC240 17/17 A2963 RMK SF1AC4CI3 SLP037 DENSITY ALT 900FT
  • 140705Z 19003KT 170V250 10SM -SHRA FEW007 FEW020 OVC110 17/17 A2963 RMK SF1SC1AC6 CVCTV CLD EMBD SLP035 DENSITY ALT 900FT
  • 140616Z 25010G15KT 10SM -SHRA FEW010 BKN040 OVC110 18/17 A2965 RMK SF1SC5AC3 SF TR CVCTV CLD EMBD PRESFR SLP043 DENSITY ALT 1000FT

TAF AMD TAF CYQB
Valid from the 14 at 06:00 until the 15 at 06:00 UTC


140553Z 1406/1506 25008KT P6SM -SHRA OVC050
TEMPO 1406/1407 VRB15G30KT 1 1/2SM +TSRA BR BKN020 OVC050CB
FM140630 24010G20KT P6SM BKN030 BKN060
TEMPO 1406/1410 P6SM -SHRA OVC020
FM141000 24010G20KT P6SM SCT008 BKN030
TEMPO 1410/1416 5SM -SHRA BR BKN008 OVC030
FM141600 25010G20KT P6SM -SHRA BKN040
PROB30 1416/1418 VRB15G25KT 2SM TSRA BR BKN020 OVC040CB
FM141800 26010G20KT P6SM SCT040
FM150000 29008KT P6SM SCT060
BECMG 1501/1503 33008KT RMK NXT FCST BY 141200Z
ATIS : ENG : +1 418-871-6893 FRA : +1 418-871-6895
CZUL FIR / North America



MET'MAP, your aeronautical weather chart ! - Copyright ORBIFLY December 2007 - Disclaimer

ORBIFLY MET'MAP TEAM :

Programming & Development : Alexandra Zaïnal
Original concept : Baudouin d'Aumeries
Technical & hardware support : Manuel Goepfert
Assistance : Marc-Olivier Méhu




SOURCES & CREDITS :

   NOAA